createdAt,value
2023-03-30T00:00:18.804Z,18.53
2023-03-30T00:02:53.943Z,19.00
2023-03-30T00:05:24.081Z,18.57
2023-03-30T00:07:54.660Z,19.40
2023-03-30T00:10:23.209Z,19.30
2023-03-30T00:12:59.354Z,20.13
2023-03-30T00:15:31.176Z,20.30
2023-03-30T00:18:01.828Z,19.57
2023-03-30T00:20:32.350Z,19.23
2023-03-30T00:23:03.533Z,19.10
2023-03-30T00:25:37.081Z,19.90
2023-03-30T00:28:08.552Z,19.87
2023-03-30T00:30:37.228Z,19.37
2023-03-30T00:33:09.516Z,19.40
2023-03-30T00:35:41.004Z,20.47
2023-03-30T00:38:11.793Z,20.30
2023-03-30T00:40:43.522Z,19.83
2023-03-30T00:43:13.370Z,26.23
2023-03-30T00:45:41.865Z,20.33
2023-03-30T00:48:18.578Z,23.17
2023-03-30T00:50:51.208Z,41.67
2023-03-30T00:53:25.903Z,42.83
2023-03-30T00:55:56.228Z,30.70
2023-03-30T00:58:28.675Z,27.90
2023-03-30T01:01:07.288Z,25.47
2023-03-30T01:03:45.796Z,20.20
2023-03-30T01:06:23.050Z,20.80
2023-03-30T01:08:52.721Z,19.73
2023-03-30T01:11:21.534Z,19.57
2023-03-30T01:14:00.656Z,20.60
2023-03-30T01:16:39.681Z,19.73
2023-03-30T01:19:29.420Z,18.00
2023-03-30T01:22:25.836Z,19.30
2023-03-30T01:28:52.577Z,18.17
2023-03-30T01:31:42.066Z,18.60
2023-03-30T01:34:43.491Z,19.33
2023-03-30T01:37:40.873Z,18.07
2023-03-30T01:40:18.673Z,19.77
2023-03-30T01:42:55.540Z,18.83
2023-03-30T01:45:34.716Z,19.07
2023-03-30T01:48:13.672Z,18.57
2023-03-30T01:50:44.782Z,18.00
2023-03-30T01:53:17.695Z,18.30
2023-03-30T01:55:58.126Z,19.13
2023-03-30T01:58:31.979Z,18.83
2023-03-30T02:01:03.655Z,19.77
2023-03-30T02:03:38.943Z,19.57
2023-03-30T02:06:14.024Z,20.17
2023-03-30T02:08:46.276Z,20.50
2023-03-30T02:11:20.209Z,20.27
2023-03-30T02:13:51.699Z,19.47
2023-03-30T02:16:26.429Z,19.80
2023-03-30T02:18:58.043Z,20.80
2023-03-30T02:21:29.818Z,20.57
2023-03-30T02:24:00.297Z,21.53
2023-03-30T02:26:34.159Z,20.30
2023-03-30T02:29:04.938Z,20.40
2023-03-30T02:31:33.649Z,21.47
2023-03-30T02:34:11.816Z,21.10
2023-03-30T02:37:05.959Z,21.43
2023-03-30T02:39:46.986Z,20.50
2023-03-30T02:43:00.051Z,20.77
2023-03-30T02:45:44.315Z,21.13
2023-03-30T02:48:27.730Z,21.87
2023-03-30T02:51:03.002Z,21.43
2023-03-30T02:54:01.355Z,21.87
2023-03-30T02:56:58.317Z,23.30
2023-03-30T02:59:33.981Z,21.90
2023-03-30T03:02:08.022Z,22.77
2023-03-30T03:04:37.820Z,24.17
2023-03-30T03:07:22.796Z,24.40
2023-03-30T03:09:55.820Z,27.63
2023-03-30T03:12:25.271Z,23.87
2023-03-30T03:14:56.438Z,23.90
2023-03-30T03:17:31.454Z,22.83
2023-03-30T03:20:00.186Z,23.57
2023-03-30T03:22:34.576Z,25.20
2023-03-30T03:25:06.639Z,22.83
2023-03-30T03:27:48.564Z,24.77
2023-03-30T03:30:23.563Z,24.27
2023-03-30T03:33:03.423Z,25.93
2023-03-30T03:35:35.460Z,24.53
2023-03-30T03:38:07.835Z,25.20
2023-03-30T03:40:36.934Z,25.30
2023-03-30T03:43:08.822Z,26.43
2023-03-30T03:45:37.360Z,26.13
2023-03-30T03:48:08.508Z,25.50
2023-03-30T03:50:53.475Z,26.33
2023-03-30T03:53:23.247Z,26.13
2023-03-30T03:55:54.988Z,25.27
2023-03-30T03:58:24.638Z,24.73
2023-03-30T04:01:01.555Z,25.73
2023-03-30T04:03:32.004Z,25.93
2023-03-30T04:06:05.143Z,26.73
2023-03-30T04:08:33.867Z,24.50
2023-03-30T04:11:22.357Z,23.00
2023-03-30T04:14:09.036Z,23.07
2023-03-30T04:17:00.250Z,23.10
2023-03-30T04:19:47.138Z,23.53
2023-03-30T04:22:41.810Z,23.47
2023-03-30T04:25:29.340Z,22.37
2023-03-30T04:28:05.165Z,23.27
2023-03-30T04:31:02.865Z,24.17
2023-03-30T04:33:53.142Z,25.30
2023-03-30T04:36:46.689Z,25.53
2023-03-30T04:39:24.152Z,23.57
2023-03-30T04:41:58.726Z,22.70
2023-03-30T04:44:59.384Z,24.00
2023-03-30T04:47:47.429Z,21.17
2023-03-30T04:50:34.444Z,25.07
2023-03-30T04:53:27.548Z,23.60
2023-03-30T04:56:11.669Z,24.80
2023-03-30T04:58:53.202Z,24.70
2023-03-30T05:01:45.561Z,23.63
2023-03-30T05:04:43.195Z,23.23
2023-03-30T05:07:31.419Z,24.07
2023-03-30T05:10:16.676Z,23.93
2023-03-30T05:13:19.923Z,23.30
2023-03-30T05:16:05.375Z,24.57
2023-03-30T05:19:12.418Z,25.67
2023-03-30T05:22:00.294Z,24.30
2023-03-30T05:24:46.616Z,24.20
2023-03-30T05:27:34.124Z,24.00
2023-03-30T05:30:37.739Z,25.07
2023-03-30T05:33:24.658Z,24.30
2023-03-30T05:36:28.535Z,24.23
2023-03-30T05:39:12.495Z,24.10
2023-03-30T05:42:05.709Z,24.43
2023-03-30T05:44:50.545Z,24.30
2023-03-30T05:47:42.921Z,24.13
2023-03-30T05:50:29.090Z,25.27
2023-03-30T05:53:03.952Z,24.67
2023-03-30T05:55:47.475Z,24.80
2023-03-30T05:58:34.437Z,26.20
2023-03-30T06:01:21.456Z,23.80
2023-03-30T06:03:52.031Z,25.67
2023-03-30T06:06:20.733Z,25.73
2023-03-30T06:08:52.681Z,24.60
2023-03-30T06:11:24.779Z,23.70
2023-03-30T06:14:02.530Z,26.03
2023-03-30T06:16:33.695Z,24.33
2023-03-30T06:19:02.780Z,24.50
2023-03-30T06:21:33.503Z,24.57
2023-03-30T06:24:22.038Z,24.93
2023-03-30T06:26:53.791Z,23.53
2023-03-30T06:29:30.784Z,23.60
2023-03-30T06:32:04.962Z,22.60
2023-03-30T06:34:44.380Z,24.17
2023-03-30T06:37:18.389Z,23.67
2023-03-30T06:39:47.137Z,23.17
2023-03-30T06:42:26.686Z,22.90
2023-03-30T06:45:14.630Z,23.47
2023-03-30T06:47:49.519Z,24.00
2023-03-30T06:50:18.188Z,24.70
2023-03-30T06:52:59.322Z,24.13
2023-03-30T06:55:32.927Z,23.60
2023-03-30T06:58:04.451Z,25.17
2023-03-30T07:00:33.001Z,23.20
2023-03-30T07:03:22.140Z,24.37
2023-03-30T07:06:01.052Z,23.90
2023-03-30T07:08:42.946Z,23.70
2023-03-30T07:11:14.284Z,21.40
2023-03-30T07:13:42.790Z,23.60
2023-03-30T07:16:11.408Z,23.20
2023-03-30T07:18:41.197Z,23.10
2023-03-30T07:21:09.642Z,23.53
2023-03-30T07:23:41.671Z,23.60
2023-03-30T07:26:12.164Z,23.40
2023-03-30T07:28:52.337Z,23.80
2023-03-30T07:31:23.212Z,24.73
2023-03-30T07:34:00.357Z,23.53
2023-03-30T07:36:33.063Z,24.60
2023-03-30T07:39:01.359Z,23.43
2023-03-30T07:41:31.636Z,21.30
2023-03-30T07:44:01.625Z,21.20
2023-03-30T07:46:29.993Z,21.40
2023-03-30T07:49:00.038Z,20.80
2023-03-30T07:51:30.874Z,23.33
2023-03-30T07:54:05.802Z,21.07
2023-03-30T07:56:44.754Z,19.93
2023-03-30T07:59:14.344Z,22.80
2023-03-30T08:01:45.147Z,20.90
2023-03-30T08:04:38.008Z,21.67
2023-03-30T08:07:09.924Z,19.90
2023-03-30T08:09:40.861Z,22.10
2023-03-30T08:12:09.144Z,21.43
2023-03-30T08:14:40.731Z,22.57
2023-03-30T08:17:08.879Z,21.43
2023-03-30T08:19:38.487Z,21.23
2023-03-30T08:22:06.670Z,20.80
2023-03-30T08:24:34.827Z,22.70
2023-03-30T08:27:03.053Z,22.00
2023-03-30T08:29:32.156Z,20.80
2023-03-30T08:32:02.943Z,22.80
2023-03-30T08:34:31.203Z,23.07
2023-03-30T08:37:00.989Z,23.57
2023-03-30T08:39:32.289Z,23.30
2023-03-30T08:42:36.642Z,23.30
2023-03-30T08:45:05.685Z,24.60
2023-03-30T08:47:37.651Z,23.20
2023-03-30T08:50:10.273Z,24.00
2023-03-30T08:52:42.078Z,23.30
2023-03-30T08:55:21.241Z,22.57
2023-03-30T08:57:57.019Z,22.23
2023-03-30T09:00:34.414Z,23.60
2023-03-30T09:03:15.045Z,24.70
2023-03-30T09:05:50.300Z,23.50
2023-03-30T09:08:24.538Z,23.90
2023-03-30T09:11:11.272Z,23.93
2023-03-30T09:13:45.650Z,24.17
2023-03-30T09:16:21.435Z,25.23
2023-03-30T09:18:55.352Z,24.40
2023-03-30T09:21:27.970Z,24.90
2023-03-30T09:23:59.138Z,25.80
2023-03-30T09:26:35.732Z,24.90
2023-03-30T09:29:08.825Z,25.07
2023-03-30T09:31:41.236Z,26.30
2023-03-30T09:34:26.054Z,25.40
2023-03-30T09:36:59.098Z,26.37
2023-03-30T09:39:31.630Z,26.00
2023-03-30T09:42:16.371Z,27.10
2023-03-30T09:44:49.290Z,26.77
2023-03-30T09:47:26.373Z,28.57
2023-03-30T09:49:59.780Z,26.57
2023-03-30T09:52:30.666Z,27.60
2023-03-30T09:55:34.355Z,27.17
2023-03-30T09:58:44.287Z,27.67
2023-03-30T10:01:48.565Z,29.63
2023-03-30T10:05:13.699Z,28.70
2023-03-30T10:07:49.961Z,26.60
2023-03-30T10:13:43.533Z,27.90
2023-03-30T10:16:44.645Z,27.90
2023-03-30T10:19:33.556Z,24.93
2023-03-30T10:22:31.685Z,23.03
2023-03-30T10:25:51.561Z,26.27
2023-03-30T10:31:36.860Z,27.30
2023-03-30T10:34:27.098Z,26.37
2023-03-30T10:37:14.209Z,24.00
2023-03-30T10:40:13.382Z,24.60
2023-03-30T10:42:57.788Z,25.10
2023-03-30T10:45:49.263Z,24.97
2023-03-30T10:48:55.107Z,23.77
2023-03-30T10:51:54.318Z,23.97
2023-03-30T10:54:40.609Z,21.30
2023-03-30T10:57:43.822Z,22.50
2023-03-30T11:00:57.875Z,22.97
2023-03-30T11:03:35.402Z,22.03
2023-03-30T11:06:33.687Z,22.43
2023-03-30T11:09:28.348Z,21.37
2023-03-30T11:12:42.737Z,20.27
2023-03-30T11:15:30.947Z,18.60
2023-03-30T11:18:28.986Z,18.00
2023-03-30T11:21:18.460Z,17.40
2023-03-30T11:24:09.105Z,18.00
2023-03-30T11:27:05.253Z,16.23
2023-03-30T11:30:05.897Z,15.53
2023-03-30T11:32:45.149Z,17.10
2023-03-30T11:35:23.453Z,19.33
2023-03-30T11:37:55.505Z,16.20
2023-03-30T11:40:34.338Z,15.93
2023-03-30T11:43:15.602Z,16.10
2023-03-30T11:46:16.092Z,15.50
2023-03-30T11:49:26.478Z,17.10
2023-03-30T11:59:17.669Z,16.33
2023-03-30T12:02:19.308Z,17.53
2023-03-30T12:05:09.747Z,16.03
2023-03-30T12:11:23.769Z,15.57
2023-03-30T12:14:15.581Z,15.53
2023-03-30T12:17:02.362Z,16.30
2023-03-30T12:20:07.273Z,16.20
2023-03-30T12:23:08.851Z,16.30
2023-03-30T12:26:24.693Z,17.20
2023-03-30T12:30:00.950Z,16.77
2023-03-30T12:32:38.532Z,16.70
2023-03-30T12:35:51.348Z,17.77
2023-03-30T12:38:47.154Z,17.73
2023-03-30T12:41:40.932Z,17.13
2023-03-30T12:44:38.352Z,17.93
2023-03-30T12:47:47.436Z,17.73
2023-03-30T12:50:42.013Z,18.70
2023-03-30T12:53:45.085Z,17.57
2023-03-30T12:56:49.092Z,18.90
2023-03-30T12:59:43.256Z,18.40
2023-03-30T13:02:54.006Z,19.43
2023-03-30T13:05:55.440Z,18.13
2023-03-30T13:08:58.156Z,16.73
2023-03-30T13:15:04.281Z,18.50
2023-03-30T13:18:40.916Z,18.30
2023-03-30T13:21:43.261Z,19.00
2023-03-30T13:24:49.929Z,18.17
2023-03-30T13:27:41.762Z,17.97
2023-03-30T13:30:34.742Z,18.00
2023-03-30T13:33:27.158Z,17.33
2023-03-30T13:36:08.061Z,17.83
2023-03-30T13:39:16.504Z,17.67
2023-03-30T13:42:37.310Z,18.17
2023-03-30T13:45:42.624Z,17.53
2023-03-30T13:48:34.231Z,17.50
2023-03-30T13:51:37.585Z,17.20
2023-03-30T13:54:18.457Z,17.00
2023-03-30T13:56:59.729Z,17.83
2023-03-30T14:00:00.399Z,17.50
2023-03-30T14:02:52.365Z,17.10
2023-03-30T14:08:57.835Z,17.40
2023-03-30T14:11:50.699Z,17.70
2023-03-30T14:14:30.731Z,17.30
2023-03-30T14:17:35.122Z,18.53
2023-03-30T14:20:21.415Z,17.50
2023-03-30T14:23:11.845Z,16.50
2023-03-30T14:25:58.128Z,17.40
2023-03-30T14:29:06.231Z,16.80
2023-03-30T14:32:07.404Z,18.10
2023-03-30T14:34:52.417Z,17.10
2023-03-30T14:37:38.077Z,17.07
2023-03-30T14:40:16.806Z,17.50
2023-03-30T14:42:46.035Z,16.70
2023-03-30T14:45:18.076Z,16.27
2023-03-30T14:47:48.012Z,16.70
2023-03-30T14:50:20.382Z,17.50
2023-03-30T14:52:49.285Z,16.10
2023-03-30T14:55:24.574Z,16.20
2023-03-30T14:57:53.912Z,15.87
2023-03-30T15:00:25.772Z,17.97
2023-03-30T15:02:57.736Z,16.50
2023-03-30T15:05:55.004Z,16.40
2023-03-30T15:08:34.209Z,16.63
2023-03-30T15:11:08.130Z,16.87
2023-03-30T15:13:50.258Z,16.50
2023-03-30T15:16:23.658Z,16.90
2023-03-30T15:18:53.598Z,16.70
2023-03-30T15:21:23.988Z,15.73
2023-03-30T15:23:52.776Z,16.43
2023-03-30T15:26:22.194Z,16.27
2023-03-30T15:28:54.787Z,16.00
2023-03-30T15:31:24.561Z,15.83
2023-03-30T15:33:54.757Z,16.00
2023-03-30T15:36:26.672Z,16.20
2023-03-30T15:38:56.535Z,16.07
2023-03-30T15:41:43.843Z,15.83
2023-03-30T15:44:14.531Z,16.80
2023-03-30T15:46:43.295Z,16.43
2023-03-30T15:49:41.638Z,16.40
2023-03-30T15:52:19.451Z,14.50
2023-03-30T15:54:52.630Z,15.27
2023-03-30T15:57:25.173Z,16.27
2023-03-30T15:59:57.865Z,16.50
2023-03-30T16:02:43.576Z,16.37
2023-03-30T16:05:19.426Z,17.33
2023-03-30T16:07:50.274Z,17.70
2023-03-30T16:10:21.998Z,17.33
2023-03-30T16:12:50.365Z,15.93
2023-03-30T16:15:23.545Z,15.77
2023-03-30T16:17:52.443Z,15.77
2023-03-30T16:20:22.510Z,17.00
2023-03-30T16:22:53.155Z,15.80
2023-03-30T16:25:31.240Z,16.27
2023-03-30T16:28:18.344Z,15.50
2023-03-30T16:30:49.615Z,16.00
2023-03-30T16:33:18.107Z,16.20
2023-03-30T16:35:46.738Z,15.83
2023-03-30T16:38:18.688Z,14.90
2023-03-30T16:40:51.579Z,15.73
2023-03-30T16:43:20.024Z,14.37
2023-03-30T16:45:48.521Z,14.27
2023-03-30T16:48:19.174Z,14.77
2023-03-30T16:50:51.060Z,14.20
2023-03-30T16:53:21.350Z,13.50
2023-03-30T16:55:55.319Z,14.50
2023-03-30T16:58:26.708Z,15.30
2023-03-30T17:01:02.997Z,15.50
2023-03-30T17:03:32.250Z,13.50
2023-03-30T17:06:00.704Z,15.00
2023-03-30T17:08:31.237Z,14.60
2023-03-30T17:11:03.797Z,14.40
2023-03-30T17:13:33.203Z,13.73
2023-03-30T17:16:02.983Z,14.37
2023-03-30T17:18:34.339Z,13.53
2023-03-30T17:21:03.833Z,13.10
2023-03-30T17:23:34.840Z,13.80
2023-03-30T17:26:03.865Z,13.13
2023-03-30T17:28:34.010Z,13.57
2023-03-30T17:31:04.593Z,14.33
2023-03-30T17:33:36.326Z,14.73
2023-03-30T17:36:08.276Z,13.77
2023-03-30T17:38:38.255Z,14.33
2023-03-30T17:41:10.258Z,13.97
2023-03-30T17:43:43.580Z,14.67
2023-03-30T17:46:22.749Z,13.30
2023-03-30T17:48:53.822Z,13.60
2023-03-30T17:51:32.483Z,14.60
2023-03-30T17:54:12.604Z,14.30
2023-03-30T17:56:41.305Z,15.07
2023-03-30T17:59:16.615Z,14.90
2023-03-30T18:01:51.241Z,14.13
2023-03-30T18:04:20.219Z,13.77
2023-03-30T18:06:49.406Z,14.80
2023-03-30T18:09:20.613Z,14.23
2023-03-30T18:19:04.330Z,13.90
2023-03-30T18:21:41.575Z,13.00
2023-03-30T18:24:18.477Z,13.47
2023-03-30T18:27:16.230Z,14.60
2023-03-30T18:30:22.903Z,13.90
2023-03-30T18:32:51.917Z,13.33
2023-03-30T18:35:23.586Z,14.20
2023-03-30T18:37:54.794Z,14.50
2023-03-30T18:40:27.272Z,13.73
2023-03-30T18:46:33.057Z,13.80
2023-03-30T18:53:57.004Z,13.63
2023-03-30T18:56:27.390Z,14.50
2023-03-30T18:59:40.970Z,13.47
2023-03-30T19:03:33.891Z,12.30
2023-03-30T19:06:05.369Z,13.43
2023-03-30T19:08:34.069Z,14.30
2023-03-30T19:11:09.060Z,14.30
2023-03-30T19:13:45.631Z,13.53
2023-03-30T19:16:26.038Z,13.47
2023-03-30T19:23:04.955Z,13.60
2023-03-30T19:25:44.700Z,14.10
2023-03-30T19:28:30.927Z,13.50
2023-03-30T19:31:22.928Z,15.30
2023-03-30T19:33:51.406Z,14.07
2023-03-30T19:36:38.707Z,14.63
2023-03-30T19:39:08.903Z,13.73
2023-03-30T19:41:37.579Z,14.43
2023-03-30T19:44:06.494Z,14.00
2023-03-30T19:46:40.252Z,13.40
2023-03-30T19:49:08.855Z,14.50
2023-03-30T19:51:41.354Z,13.57
2023-03-30T19:54:17.339Z,13.73
2023-03-30T19:56:47.786Z,14.70
2023-03-30T19:59:22.829Z,14.73
2023-03-30T20:01:51.776Z,13.93
2023-03-30T20:04:20.711Z,14.73
2023-03-30T20:06:49.244Z,15.77
2023-03-30T20:09:24.416Z,15.20
2023-03-30T20:11:56.627Z,17.57
2023-03-30T20:14:40.155Z,16.43
2023-03-30T20:17:12.023Z,16.37
2023-03-30T20:19:41.070Z,16.10
2023-03-30T20:22:21.796Z,15.10
2023-03-30T20:24:51.806Z,15.10
2023-03-30T20:27:21.698Z,15.27
2023-03-30T20:29:50.111Z,14.80
2023-03-30T20:32:21.868Z,15.23
2023-03-30T20:34:50.338Z,15.67
2023-03-30T20:37:20.057Z,15.70
2023-03-30T20:39:49.869Z,14.90
2023-03-30T20:42:28.333Z,14.40
2023-03-30T20:44:58.181Z,15.00
2023-03-30T20:47:30.555Z,15.03
2023-03-30T20:50:00.863Z,14.77
2023-03-30T20:52:29.521Z,14.80
2023-03-30T20:54:57.828Z,14.40
2023-03-30T20:57:27.884Z,14.50
2023-03-30T20:59:56.549Z,14.97
2023-03-30T21:02:24.887Z,14.60
2023-03-30T21:04:57.430Z,15.80
2023-03-30T21:07:27.426Z,16.60
2023-03-30T21:09:55.825Z,15.07
2023-03-30T21:12:24.045Z,16.00
2023-03-30T21:14:53.910Z,16.30
2023-03-30T21:17:22.110Z,17.80
2023-03-30T21:19:50.484Z,18.20
2023-03-30T21:22:19.098Z,15.67
2023-03-30T21:24:47.439Z,14.87
2023-03-30T21:27:15.769Z,14.73
2023-03-30T21:29:44.208Z,15.27
2023-03-30T21:32:14.266Z,15.10
2023-03-30T21:34:42.585Z,15.53
2023-03-30T21:37:10.998Z,15.73
2023-03-30T21:39:39.667Z,15.00
2023-03-30T21:42:08.172Z,15.90
2023-03-30T21:44:37.402Z,14.77
2023-03-30T21:47:05.794Z,14.07
2023-03-30T21:49:37.243Z,15.07
2023-03-30T21:52:05.605Z,14.70
2023-03-30T21:54:34.192Z,16.30
2023-03-30T21:57:02.745Z,14.60
2023-03-30T21:59:31.169Z,16.13
2023-03-30T22:01:59.613Z,15.73
2023-03-30T22:04:27.976Z,16.33
2023-03-30T22:06:57.768Z,17.67
2023-03-30T22:09:26.152Z,17.97
2023-03-30T22:11:55.493Z,15.37
2023-03-30T22:14:24.051Z,17.53
2023-03-30T22:16:52.351Z,16.80
2023-03-30T22:19:22.833Z,16.13
2023-03-30T22:21:51.999Z,15.87
2023-03-30T22:24:21.968Z,14.90
2023-03-30T22:26:50.340Z,16.50
2023-03-30T22:29:20.921Z,15.40
2023-03-30T22:31:51.433Z,13.77
2023-03-30T22:34:19.715Z,14.90
2023-03-30T22:36:48.010Z,15.43
2023-03-30T22:39:16.752Z,15.30
2023-03-30T22:41:47.216Z,16.47
2023-03-30T22:44:17.777Z,15.80
2023-03-30T22:46:46.020Z,15.57
2023-03-30T22:49:14.283Z,15.07
2023-03-30T22:51:51.850Z,16.43
2023-03-30T22:54:22.528Z,14.67
2023-03-30T22:56:52.516Z,14.90
2023-03-30T22:59:20.863Z,14.70
2023-03-30T23:01:49.384Z,14.40
2023-03-30T23:04:18.741Z,14.77
2023-03-30T23:06:48.020Z,14.40
2023-03-30T23:09:16.344Z,13.80
2023-03-30T23:11:45.592Z,16.43
2023-03-30T23:14:15.749Z,14.47
2023-03-30T23:16:44.169Z,13.53
2023-03-30T23:19:12.580Z,15.37
2023-03-30T23:21:40.989Z,14.30
2023-03-30T23:24:12.202Z,15.20
2023-03-30T23:26:40.506Z,14.60
2023-03-30T23:29:08.737Z,14.10
2023-03-30T23:31:38.443Z,14.43
2023-03-30T23:34:10.186Z,15.20
2023-03-30T23:36:38.462Z,15.50
2023-03-30T23:39:06.621Z,14.77
2023-03-30T23:41:34.887Z,14.83
2023-03-30T23:44:03.347Z,15.60
2023-03-30T23:46:31.901Z,14.03
2023-03-30T23:49:01.894Z,14.13
2023-03-30T23:51:30.510Z,14.40
2023-03-30T23:54:06.062Z,14.20
2023-03-30T23:56:35.227Z,13.57
2023-03-30T23:59:03.411Z,14.00
